createdAt,value
2023-03-26T00:04:10.600Z,9.234113712374581
2023-03-26T00:10:31.225Z,13.765886287625419
2023-03-26T00:16:54.370Z,9.816053511705686
2023-03-26T00:24:11.308Z,10.177257525083611
2023-03-26T00:30:31.068Z,11.709030100334449
2023-03-26T00:36:51.209Z,13.364548494983278
2023-03-26T00:43:13.866Z,15.043478260869565
2023-03-26T00:49:33.648Z,12.82943143812709
2023-03-26T00:55:54.288Z,10.508361204013378
2023-03-26T01:02:15.498Z,10.438127090301004
2023-03-26T01:08:36.215Z,10.334448160535118
2023-03-26T01:14:56.958Z,9.68227424749164
2023-03-26T01:21:17.473Z,7.050167224080267
2023-03-26T01:27:38.589Z,7.668896321070235
2023-03-26T01:33:58.334Z,8.494983277591974
2023-03-26T01:40:19.823Z,6.632107023411371
2023-03-26T01:46:40.897Z,9.214046822742475
2023-03-26T01:53:02.934Z,11.070234113712374
2023-03-26T01:59:23.351Z,11.551839464882944
2023-03-26T02:05:42.163Z,11.040133779264215
2023-03-26T02:12:02.930Z,12.852842809364548
2023-03-26T02:19:55.071Z,13.615384615384615
2023-03-26T02:26:16.085Z,9.090301003344482
2023-03-26T02:32:37.313Z,10.240802675585284
2023-03-26T02:38:57.368Z,9.200668896321071
2023-03-26T02:46:03.811Z,13.107023411371237
2023-03-26T02:52:24.940Z,8.789297658862877
2023-03-26T02:58:45.871Z,13.876254180602007
2023-03-26T03:09:28.957Z,16.076923076923077
2023-03-26T03:15:48.886Z,14.073578595317725
2023-03-26T03:22:08.310Z,11.555183946488294
2023-03-26T03:28:30.296Z,14.193979933110368
2023-03-26T03:34:51.451Z,10.97324414715719
2023-03-26T03:46:44.597Z,12.826086956521738
2023-03-26T03:53:06.319Z,11.762541806020067
2023-03-26T03:59:29.173Z,11.575250836120402
2023-03-26T04:05:49.343Z,11.036789297658864
2023-03-26T04:13:05.799Z,12.66220735785953
2023-03-26T04:19:26.476Z,12.391304347826088
2023-03-26T04:25:46.934Z,12.521739130434783
2023-03-26T04:32:07.060Z,10.020066889632107
2023-03-26T04:39:18.884Z,12.565217391304348
2023-03-26T04:45:38.343Z,7.993311036789297
2023-03-26T04:51:57.940Z,9.678929765886288
2023-03-26T04:58:18.180Z,13.79598662207358
2023-03-26T05:09:31.592Z,8.461538461538462
2023-03-26T05:15:52.181Z,9.73913043478261
2023-03-26T05:22:14.574Z,10.595317725752508
2023-03-26T05:28:33.988Z,7.053511705685619
2023-03-26T05:34:55.341Z,5.7558528428093645
2023-03-26T05:41:17.521Z,5.678929765886288
2023-03-26T05:47:41.951Z,9.397993311036789
2023-03-26T05:54:07.825Z,9.010033444816054
2023-03-26T06:00:32.251Z,12.220735785953178
2023-03-26T06:08:29.484Z,9.234113712374581
2023-03-26T06:14:52.993Z,9.615384615384615
2023-03-26T06:27:40.382Z,7.6521739130434785
2023-03-26T06:40:16.032Z,11.100334448160535
2023-03-26T06:46:41.061Z,12.74247491638796
2023-03-26T06:57:03.438Z,13.692307692307692
2023-03-26T07:04:14.384Z,12.82943143812709
2023-03-26T07:10:37.070Z,11.163879598662207
2023-03-26T07:32:27.564Z,14.26086956521739
2023-03-26T07:38:50.695Z,14.959866220735785
2023-03-26T07:45:38.015Z,11.836120401337793
2023-03-26T07:51:59.294Z,17.270903010033443
2023-03-26T07:58:20.669Z,16.237458193979933
2023-03-26T08:04:41.980Z,15.193979933110368
2023-03-26T08:12:28.943Z,16.52173913043478
2023-03-26T08:23:50.681Z,13.97324414715719
2023-03-26T08:32:07.718Z,15.404682274247492
2023-03-26T08:38:29.348Z,15.816053511705686
2023-03-26T08:44:50.268Z,14.438127090301004
2023-03-26T08:53:56.421Z,18.759197324414714
2023-03-26T09:00:28.696Z,17.4247491638796
2023-03-26T09:06:52.192Z,13.561872909698996
2023-03-26T09:16:24.355Z,20.892976588628763
2023-03-26T09:22:46.221Z,15.391304347826088
2023-03-26T09:29:11.923Z,16.672240802675585
2023-03-26T09:40:20.131Z,14.849498327759198
2023-03-26T09:46:46.192Z,17.762541806020067
2023-03-26T09:53:07.779Z,15.250836120401338
2023-03-26T09:59:28.639Z,14.40133779264214
2023-03-26T10:05:50.060Z,14.284280936454849
2023-03-26T10:12:10.981Z,15.26086956521739
2023-03-26T10:18:32.016Z,20.71571906354515
2023-03-26T10:24:53.145Z,11.866220735785953
2023-03-26T10:31:15.016Z,16.47826086956522
2023-03-26T10:37:36.337Z,19.86622073578595
2023-03-26T10:44:07.273Z,19.391304347826086
2023-03-26T10:54:24.929Z,19.96989966555184
2023-03-26T11:01:16.180Z,19.67558528428094
2023-03-26T11:07:37.982Z,17.240802675585286
2023-03-26T11:13:59.495Z,19.06020066889632
2023-03-26T11:20:21.231Z,23.331103678929765
2023-03-26T11:26:43.282Z,19.25083612040134
2023-03-26T11:34:05.349Z,21.240802675585286
2023-03-26T11:41:59.875Z,21.889632107023413
2023-03-26T11:48:21.480Z,16.989966555183948
2023-03-26T11:54:43.185Z,18.31438127090301
2023-03-26T12:01:06.182Z,20.47826086956522
2023-03-26T12:07:27.526Z,23.016722408026755
2023-03-26T12:13:49.030Z,21.384615384615383
2023-03-26T12:20:10.331Z,18.013377926421406
2023-03-26T12:31:34.880Z,24.32441471571906
2023-03-26T12:37:56.033Z,22.05685618729097
2023-03-26T12:44:47.303Z,26.501672240802677
2023-03-26T12:51:18.634Z,25.304347826086957
2023-03-26T13:04:19.166Z,22.17725752508361
2023-03-26T13:10:40.746Z,29.25752508361204
2023-03-26T13:17:02.195Z,36.31103678929766
2023-03-26T13:25:27.749Z,21.096989966555185
2023-03-26T13:31:49.372Z,25.498327759197323
2023-03-26T13:38:10.778Z,20.304347826086957
2023-03-26T13:44:32.351Z,22.54180602006689
2023-03-26T13:55:28.227Z,23.307692307692307
2023-03-26T14:02:53.262Z,28.52173913043478
2023-03-26T14:09:15.018Z,17.662207357859533
2023-03-26T14:18:00.723Z,19.63545150501672
2023-03-26T14:24:22.086Z,17.54515050167224
2023-03-26T14:30:44.044Z,22.421404682274247
2023-03-26T14:37:05.617Z,15.384615384615385
2023-03-26T14:43:27.299Z,19.698996655518396
2023-03-26T14:49:48.489Z,15.54180602006689
2023-03-26T14:56:10.020Z,15.387959866220736
2023-03-26T15:02:31.930Z,11.74581939799331
2023-03-26T15:08:53.512Z,15.411371237458194
2023-03-26T15:15:15.147Z,11.080267558528428
2023-03-26T15:27:40.389Z,12.127090301003344
2023-03-26T15:34:02.535Z,25.85284280936455
2023-03-26T15:40:23.880Z,32.64548494983278
2023-03-26T16:03:27.116Z,19.160535117056856
2023-03-26T16:09:48.032Z,16.40468227424749
2023-03-26T16:16:09.041Z,10.832775919732441
2023-03-26T16:22:30.249Z,15.581939799331103
2023-03-26T16:28:51.111Z,14.923076923076923
2023-03-26T16:35:12.456Z,26.444816053511705
2023-03-26T16:46:33.437Z,21.301003344481604
2023-03-26T16:52:54.481Z,20.471571906354516
2023-03-26T16:59:15.908Z,17.1438127090301
2023-03-26T17:05:37.574Z,18.849498327759196
2023-03-26T17:12:00.556Z,19.953177257525084
2023-03-26T17:18:25.217Z,21.39799331103679
2023-03-26T17:30:33.885Z,36.49498327759197
2023-03-26T17:36:55.614Z,45.04013377926422
2023-03-26T17:44:21.632Z,22.26086956521739
2023-03-26T17:50:40.986Z,11.187290969899665
2023-03-26T17:57:03.050Z,12.036789297658864
2023-03-26T18:03:23.887Z,17.297658862876254
2023-03-26T18:09:42.962Z,22.67558528428094
2023-03-26T18:22:16.842Z,29.926421404682273
2023-03-26T18:28:40.063Z,25.02006688963211
2023-03-26T18:35:00.781Z,24.401337792642142
2023-03-26T18:41:21.295Z,22.334448160535118
2023-03-26T18:47:41.709Z,26.17725752508361
2023-03-26T18:54:02.373Z,21.387959866220736
2023-03-26T19:05:30.386Z,20.48829431438127
2023-03-26T19:11:50.714Z,18.933110367892976
2023-03-26T19:18:11.772Z,14.167224080267559
2023-03-26T19:24:32.016Z,14.127090301003344
2023-03-26T19:30:54.344Z,12.785953177257525
2023-03-26T19:37:14.297Z,12.752508361204013
2023-03-26T19:43:34.291Z,12.133779264214047
2023-03-26T19:49:53.700Z,13.826086956521738
2023-03-26T19:59:17.573Z,12.622073578595318
2023-03-26T20:07:48.430Z,20.127090301003346
2023-03-26T20:14:07.014Z,9.919732441471572
2023-03-26T20:20:27.013Z,12.832775919732441
2023-03-26T20:28:47.470Z,12.103678929765886
2023-03-26T20:35:08.241Z,28.190635451505017
2023-03-26T20:41:29.238Z,32.14046822742475
2023-03-26T20:49:27.010Z,19.381270903010034
2023-03-26T21:05:08.257Z,17.765886287625417
2023-03-26T21:14:42.498Z,20.237458193979933
2023-03-26T21:21:14.099Z,12.066889632107024
2023-03-26T21:27:41.291Z,12.605351170568563
2023-03-26T21:34:00.010Z,13.678929765886288
2023-03-26T21:42:49.661Z,28.02675585284281
2023-03-26T21:58:39.389Z,11.782608695652174
2023-03-26T22:04:58.297Z,7.588628762541806
2023-03-26T22:11:17.217Z,8.605351170568563
2023-03-26T22:21:17.244Z,11.307692307692308
2023-03-26T22:27:44.138Z,12.585284280936454
2023-03-26T22:34:04.259Z,10.555183946488294
2023-03-26T22:40:22.855Z,9.518394648829432
2023-03-26T22:50:15.375Z,10.120401337792643
2023-03-26T22:56:35.729Z,8.66220735785953
2023-03-26T23:07:15.444Z,8.96989966555184
2023-03-26T23:13:35.646Z,8.555183946488294
2023-03-26T23:19:54.360Z,9.765886287625419
2023-03-26T23:26:13.034Z,7.408026755852843
2023-03-26T23:33:16.762Z,9.414715719063546
2023-03-26T23:43:00.688Z,7.949832775919733
2023-03-26T23:54:41.174Z,9.307692307692308
